sensor_id;sensor_type;location;lat;lon;timestamp;pressure;altitude;pressure_sealevel;temperature;humidity
12215;BME280;6170;42.206;24.142;2023-04-25T00:00:27;98124.94;;;13.47;97.07
12215;BME280;6170;42.206;24.142;2023-04-25T00:02:53;98128.19;;;13.61;96.34
12215;BME280;6170;42.206;24.142;2023-04-25T00:05:22;98108.00;;;13.35;96.87
12215;BME280;6170;42.206;24.142;2023-04-25T00:07:49;98117.09;;;13.58;96.48
12215;BME280;6170;42.206;24.142;2023-04-25T00:10:18;98115.00;;;13.48;97.04
12215;BME280;6170;42.206;24.142;2023-04-25T00:12:45;98112.16;;;13.55;96.69
12215;BME280;6170;42.206;24.142;2023-04-25T00:15:12;98101.66;;;13.41;95.40
12215;BME280;6170;42.206;24.142;2023-04-25T00:17:39;98113.47;;;13.52;95.71
12215;BME280;6170;42.206;24.142;2023-04-25T00:20:07;98109.34;;;13.61;95.06
12215;BME280;6170;42.206;24.142;2023-04-25T00:22:35;98110.81;;;13.40;96.32
12215;BME280;6170;42.206;24.142;2023-04-25T00:25:03;98109.72;;;13.41;95.88
12215;BME280;6170;42.206;24.142;2023-04-25T00:27:31;98120.63;;;13.23;95.86
12215;BME280;6170;42.206;24.142;2023-04-25T00:29:58;98121.34;;;13.30;96.60
12215;BME280;6170;42.206;24.142;2023-04-25T00:32:25;98116.69;;;13.14;96.76
12215;BME280;6170;42.206;24.142;2023-04-25T00:34:52;98126.34;;;13.38;96.59
12215;BME280;6170;42.206;24.142;2023-04-25T00:37:21;98124.72;;;13.49;95.26
12215;BME280;6170;42.206;24.142;2023-04-25T00:39:48;98119.91;;;13.51;95.38
12215;BME280;6170;42.206;24.142;2023-04-25T00:42:15;98123.69;;;13.27;97.37
12215;BME280;6170;42.206;24.142;2023-04-25T00:44:44;98121.31;;;13.07;99.44
12215;BME280;6170;42.206;24.142;2023-04-25T00:47:12;98128.09;;;12.98;100.00
12215;BME280;6170;42.206;24.142;2023-04-25T00:49:39;98108.25;;;13.22;100.00
12215;BME280;6170;42.206;24.142;2023-04-25T00:52:06;98110.72;;;13.12;99.49
12215;BME280;6170;42.206;24.142;2023-04-25T00:54:33;98097.84;;;13.26;98.93
12215;BME280;6170;42.206;24.142;2023-04-25T00:57:00;98103.88;;;13.33;99.35
12215;BME280;6170;42.206;24.142;2023-04-25T00:59:27;98087.19;;;13.31;99.15
12215;BME280;6170;42.206;24.142;2023-04-25T01:01:58;98094.72;;;13.57;97.90
12215;BME280;6170;42.206;24.142;2023-04-25T01:04:27;98091.66;;;13.65;96.88
12215;BME280;6170;42.206;24.142;2023-04-25T01:06:54;98079.63;;;13.56;96.99
12215;BME280;6170;42.206;24.142;2023-04-25T01:09:22;98086.28;;;13.65;96.55
12215;BME280;6170;42.206;24.142;2023-04-25T01:11:49;98080.19;;;13.70;96.36
12215;BME280;6170;42.206;24.142;2023-04-25T01:14:16;98104.47;;;13.86;96.21
12215;BME280;6170;42.206;24.142;2023-04-25T01:16:44;98078.50;;;13.40;97.06
12215;BME280;6170;42.206;24.142;2023-04-25T01:19:16;98075.78;;;13.52;96.87
12215;BME280;6170;42.206;24.142;2023-04-25T01:21:45;98083.25;;;13.62;97.60
12215;BME280;6170;42.206;24.142;2023-04-25T01:24:12;98083.25;;;13.62;96.97
12215;BME280;6170;42.206;24.142;2023-04-25T01:26:39;98071.78;;;13.66;96.84
12215;BME280;6170;42.206;24.142;2023-04-25T01:29:10;98072.94;;;13.59;97.86
12215;BME280;6170;42.206;24.142;2023-04-25T01:31:37;98061.81;;;13.67;97.35
12215;BME280;6170;42.206;24.142;2023-04-25T01:34:05;98065.06;;;13.69;97.01
12215;BME280;6170;42.206;24.142;2023-04-25T01:36:32;98057.75;;;13.81;96.34
12215;BME280;6170;42.206;24.142;2023-04-25T01:39:00;98052.63;;;13.79;96.27
12215;BME280;6170;42.206;24.142;2023-04-25T01:41:28;98062.19;;;13.87;95.88
12215;BME280;6170;42.206;24.142;2023-04-25T01:43:55;98061.38;;;13.86;95.79
12215;BME280;6170;42.206;24.142;2023-04-25T01:46:22;98059.31;;;13.77;96.80
12215;BME280;6170;42.206;24.142;2023-04-25T01:48:49;98058.75;;;13.75;96.86
12215;BME280;6170;42.206;24.142;2023-04-25T01:51:16;98060.50;;;13.69;97.17
12215;BME280;6170;42.206;24.142;2023-04-25T01:53:43;98046.84;;;13.59;96.80
12215;BME280;6170;42.206;24.142;2023-04-25T01:56:12;98069.47;;;13.86;95.57
12215;BME280;6170;42.206;24.142;2023-04-25T01:58:39;98071.63;;;14.01;95.38
12215;BME280;6170;42.206;24.142;2023-04-25T02:01:06;98062.00;;;14.05;94.34
12215;BME280;6170;42.206;24.142;2023-04-25T02:03:33;98048.09;;;13.97;94.21
12215;BME280;6170;42.206;24.142;2023-04-25T02:06:00;98056.47;;;13.55;95.88
12215;BME280;6170;42.206;24.142;2023-04-25T02:08:27;98057.44;;;13.49;96.58
12215;BME280;6170;42.206;24.142;2023-04-25T02:10:55;98058.09;;;13.56;97.92
12215;BME280;6170;42.206;24.142;2023-04-25T02:13:24;98060.13;;;13.37;97.68
12215;BME280;6170;42.206;24.142;2023-04-25T02:15:50;98053.06;;;13.60;97.92
12215;BME280;6170;42.206;24.142;2023-04-25T02:18:17;98048.81;;;13.64;96.86
12215;BME280;6170;42.206;24.142;2023-04-25T02:20:45;98035.66;;;13.50;96.27
12215;BME280;6170;42.206;24.142;2023-04-25T02:23:12;98040.50;;;13.65;95.30
12215;BME280;6170;42.206;24.142;2023-04-25T02:25:40;98031.19;;;13.56;94.49
12215;BME280;6170;42.206;24.142;2023-04-25T02:28:07;98035.19;;;13.54;94.24
12215;BME280;6170;42.206;24.142;2023-04-25T02:30:36;98036.22;;;13.53;94.14
12215;BME280;6170;42.206;24.142;2023-04-25T02:33:03;98015.47;;;13.36;94.27
12215;BME280;6170;42.206;24.142;2023-04-25T02:35:30;98019.78;;;13.37;93.43
12215;BME280;6170;42.206;24.142;2023-04-25T02:37:57;98024.81;;;13.34;94.06
12215;BME280;6170;42.206;24.142;2023-04-25T02:40:23;98025.50;;;13.41;94.00
12215;BME280;6170;42.206;24.142;2023-04-25T02:42:50;98028.94;;;13.25;93.93
12215;BME280;6170;42.206;24.142;2023-04-25T02:45:17;98032.88;;;13.34;94.09
12215;BME280;6170;42.206;24.142;2023-04-25T02:47:46;98014.00;;;13.17;94.05
12215;BME280;6170;42.206;24.142;2023-04-25T02:50:12;98016.19;;;13.20;93.91
12215;BME280;6170;42.206;24.142;2023-04-25T02:52:39;98012.84;;;13.13;94.68
12215;BME280;6170;42.206;24.142;2023-04-25T02:55:07;98017.72;;;13.16;94.11
12215;BME280;6170;42.206;24.142;2023-04-25T02:57:34;98010.00;;;13.20;94.46
12215;BME280;6170;42.206;24.142;2023-04-25T03:00:01;98006.63;;;13.13;94.70
12215;BME280;6170;42.206;24.142;2023-04-25T03:02:29;98004.84;;;13.06;95.58
12215;BME280;6170;42.206;24.142;2023-04-25T03:04:57;98021.13;;;12.77;96.87
12215;BME280;6170;42.206;24.142;2023-04-25T03:07:24;98024.66;;;12.77;96.70
12215;BME280;6170;42.206;24.142;2023-04-25T03:09:51;98013.91;;;12.54;99.97
12215;BME280;6170;42.206;24.142;2023-04-25T03:12:18;98011.56;;;12.46;99.57
12215;BME280;6170;42.206;24.142;2023-04-25T03:14:45;98017.41;;;12.54;99.27
12215;BME280;6170;42.206;24.142;2023-04-25T03:17:12;98012.03;;;12.66;99.24
12215;BME280;6170;42.206;24.142;2023-04-25T03:19:39;98031.78;;;12.83;98.50
12215;BME280;6170;42.206;24.142;2023-04-25T03:22:07;98008.41;;;12.72;97.64
12215;BME280;6170;42.206;24.142;2023-04-25T03:24:34;98013.31;;;12.75;97.29
12215;BME280;6170;42.206;24.142;2023-04-25T03:27:02;98005.72;;;12.72;95.90
12215;BME280;6170;42.206;24.142;2023-04-25T03:29:29;98009.56;;;12.76;95.43
12215;BME280;6170;42.206;24.142;2023-04-25T03:31:56;98015.31;;;12.68;95.27
12215;BME280;6170;42.206;24.142;2023-04-25T03:34:23;98007.38;;;12.73;94.88
12215;BME280;6170;42.206;24.142;2023-04-25T03:36:51;98000.47;;;12.66;95.04
12215;BME280;6170;42.206;24.142;2023-04-25T03:39:19;97996.16;;;12.65;94.79
12215;BME280;6170;42.206;24.142;2023-04-25T03:41:46;97993.56;;;12.58;94.58
12215;BME280;6170;42.206;24.142;2023-04-25T03:44:13;97996.13;;;12.41;95.73
12215;BME280;6170;42.206;24.142;2023-04-25T03:46:40;97986.22;;;12.42;95.19
12215;BME280;6170;42.206;24.142;2023-04-25T03:49:07;97988.66;;;12.32;95.08
12215;BME280;6170;42.206;24.142;2023-04-25T03:51:34;97992.66;;;11.88;98.52
12215;BME280;6170;42.206;24.142;2023-04-25T03:54:01;97978.25;;;11.70;99.32
12215;BME280;6170;42.206;24.142;2023-04-25T03:56:29;98004.63;;;12.03;98.60
12215;BME280;6170;42.206;24.142;2023-04-25T03:58:56;98001.25;;;12.08;98.62
12215;BME280;6170;42.206;24.142;2023-04-25T04:01:23;98007.19;;;12.10;97.83
12215;BME280;6170;42.206;24.142;2023-04-25T04:03:50;98014.44;;;12.09;97.25
12215;BME280;6170;42.206;24.142;2023-04-25T04:06:17;98014.13;;;12.29;96.45
12215;BME280;6170;42.206;24.142;2023-04-25T04:08:46;98011.78;;;12.33;95.81
12215;BME280;6170;42.206;24.142;2023-04-25T04:11:13;98011.91;;;12.38;95.71
12215;BME280;6170;42.206;24.142;2023-04-25T04:13:41;98023.91;;;12.35;95.34
12215;BME280;6170;42.206;24.142;2023-04-25T04:16:08;98009.66;;;12.23;95.90
12215;BME280;6170;42.206;24.142;2023-04-25T04:18:35;98019.25;;;12.31;95.95
12215;BME280;6170;42.206;24.142;2023-04-25T04:21:02;98023.56;;;12.32;94.71
12215;BME280;6170;42.206;24.142;2023-04-25T04:23:29;98031.75;;;12.48;94.37
12215;BME280;6170;42.206;24.142;2023-04-25T04:25:56;98027.75;;;12.16;96.26
12215;BME280;6170;42.206;24.142;2023-04-25T04:28:23;98035.75;;;12.34;97.19
12215;BME280;6170;42.206;24.142;2023-04-25T04:30:52;98032.47;;;12.55;96.45
12215;BME280;6170;42.206;24.142;2023-04-25T04:33:18;98041.94;;;12.46;95.61
12215;BME280;6170;42.206;24.142;2023-04-25T04:35:46;98019.50;;;12.41;96.06
12215;BME280;6170;42.206;24.142;2023-04-25T04:38:14;98033.88;;;12.81;95.27
12215;BME280;6170;42.206;24.142;2023-04-25T04:40:41;98031.41;;;13.03;98.28
12215;BME280;6170;42.206;24.142;2023-04-25T04:43:08;98032.53;;;13.70;96.93
12215;BME280;6170;42.206;24.142;2023-04-25T04:45:36;98030.13;;;14.47;93.58
12215;BME280;6170;42.206;24.142;2023-04-25T04:48:05;98045.31;;;15.47;89.03
12215;BME280;6170;42.206;24.142;2023-04-25T04:50:32;98049.78;;;15.80;84.36
12215;BME280;6170;42.206;24.142;2023-04-25T04:52:59;98049.16;;;15.51;84.62
12215;BME280;6170;42.206;24.142;2023-04-25T04:55:26;98053.28;;;15.37;86.80
12215;BME280;6170;42.206;24.142;2023-04-25T04:57:53;98049.75;;;16.01;84.58
12215;BME280;6170;42.206;24.142;2023-04-25T05:00:20;98041.44;;;16.67;82.88
12215;BME280;6170;42.206;24.142;2023-04-25T05:02:47;98065.50;;;17.52;79.19
12215;BME280;6170;42.206;24.142;2023-04-25T05:05:15;98047.03;;;16.97;79.05
12215;BME280;6170;42.206;24.142;2023-04-25T05:07:42;98040.81;;;16.01;83.14
12215;BME280;6170;42.206;24.142;2023-04-25T05:10:09;98046.28;;;16.65;84.89
12215;BME280;6170;42.206;24.142;2023-04-25T05:12:36;98040.16;;;16.79;82.65
12215;BME280;6170;42.206;24.142;2023-04-25T05:15:03;98038.53;;;15.88;81.87
12215;BME280;6170;42.206;24.142;2023-04-25T05:17:30;98037.06;;;16.02;82.66
12215;BME280;6170;42.206;24.142;2023-04-25T05:19:58;98023.25;;;17.04;80.81
12215;BME280;6170;42.206;24.142;2023-04-25T05:22:26;98028.00;;;17.29;81.28
12215;BME280;6170;42.206;24.142;2023-04-25T05:24:53;98008.59;;;16.90;80.92
12215;BME280;6170;42.206;24.142;2023-04-25T05:27:20;98040.16;;;17.21;78.97
12215;BME280;6170;42.206;24.142;2023-04-25T05:29:47;98003.81;;;16.65;80.25
12215;BME280;6170;42.206;24.142;2023-04-25T05:32:14;97993.69;;;16.50;79.87
12215;BME280;6170;42.206;24.142;2023-04-25T05:34:41;98031.59;;;16.29;79.14
12215;BME280;6170;42.206;24.142;2023-04-25T05:37:08;98018.72;;;16.68;81.02
12215;BME280;6170;42.206;24.142;2023-04-25T05:39:36;98013.06;;;16.37;81.10
12215;BME280;6170;42.206;24.142;2023-04-25T05:42:03;98017.38;;;16.70;78.58
12215;BME280;6170;42.206;24.142;2023-04-25T05:44:30;98021.34;;;17.51;76.36
12215;BME280;6170;42.206;24.142;2023-04-25T05:46:57;98008.41;;;16.65;78.30
12215;BME280;6170;42.206;24.142;2023-04-25T05:49:24;98007.41;;;17.28;74.75
12215;BME280;6170;42.206;24.142;2023-04-25T05:51:51;98020.16;;;18.00;75.04
12215;BME280;6170;42.206;24.142;2023-04-25T05:54:18;98010.16;;;18.66;72.35
12215;BME280;6170;42.206;24.142;2023-04-25T05:56:46;98006.06;;;18.38;75.04
12215;BME280;6170;42.206;24.142;2023-04-25T05:59:13;98002.53;;;18.98;70.23
12215;BME280;6170;42.206;24.142;2023-04-25T06:01:41;98006.81;;;19.79;70.79
12215;BME280;6170;42.206;24.142;2023-04-25T06:04:08;98005.00;;;18.64;72.13
12215;BME280;6170;42.206;24.142;2023-04-25T06:06:35;98014.78;;;18.75;68.81
12215;BME280;6170;42.206;24.142;2023-04-25T06:09:02;98001.94;;;19.81;69.16
12215;BME280;6170;42.206;24.142;2023-04-25T06:11:29;98008.16;;;19.86;68.64
12215;BME280;6170;42.206;24.142;2023-04-25T06:13:57;98005.91;;;19.98;65.92
12215;BME280;6170;42.206;24.142;2023-04-25T06:16:24;98004.84;;;19.94;68.28
12215;BME280;6170;42.206;24.142;2023-04-25T06:18:51;98001.25;;;19.55;68.02
12215;BME280;6170;42.206;24.142;2023-04-25T06:21:18;97997.75;;;19.44;67.94
12215;BME280;6170;42.206;24.142;2023-04-25T06:23:45;97981.84;;;20.15;66.71
12215;BME280;6170;42.206;24.142;2023-04-25T06:26:12;97999.72;;;20.32;66.54
12215;BME280;6170;42.206;24.142;2023-04-25T06:28:39;98022.59;;;20.31;67.25
12215;BME280;6170;42.206;24.142;2023-04-25T06:31:07;98004.56;;;19.37;64.67
12215;BME280;6170;42.206;24.142;2023-04-25T06:33:34;98009.78;;;19.13;65.62
12215;BME280;6170;42.206;24.142;2023-04-25T06:36:01;98010.66;;;19.78;67.27
12215;BME280;6170;42.206;24.142;2023-04-25T06:38:28;98000.06;;;18.97;66.64
12215;BME280;6170;42.206;24.142;2023-04-25T06:40:55;98004.50;;;19.57;66.49
12215;BME280;6170;42.206;24.142;2023-04-25T06:43:22;98008.56;;;19.64;66.64
12215;BME280;6170;42.206;24.142;2023-04-25T06:45:48;98007.16;;;18.82;66.11
12215;BME280;6170;42.206;24.142;2023-04-25T06:48:17;97996.81;;;19.00;66.43
12215;BME280;6170;42.206;24.142;2023-04-25T06:50:44;98000.41;;;18.60;68.25
12215;BME280;6170;42.206;24.142;2023-04-25T06:53:10;97988.41;;;18.86;71.33
12215;BME280;6170;42.206;24.142;2023-04-25T06:55:38;97989.50;;;18.90;70.89
12215;BME280;6170;42.206;24.142;2023-04-25T06:58:05;97993.59;;;18.17;71.37
12215;BME280;6170;42.206;24.142;2023-04-25T07:00:33;98002.25;;;17.93;71.23
12215;BME280;6170;42.206;24.142;2023-04-25T07:03:00;97997.66;;;18.24;69.87
12215;BME280;6170;42.206;24.142;2023-04-25T07:05:28;98000.19;;;17.48;71.00
12215;BME280;6170;42.206;24.142;2023-04-25T07:07:55;97977.00;;;17.05;73.31
12215;BME280;6170;42.206;24.142;2023-04-25T07:10:22;97996.06;;;17.36;73.60
12215;BME280;6170;42.206;24.142;2023-04-25T07:12:50;97999.19;;;17.02;74.06
12215;BME280;6170;42.206;24.142;2023-04-25T07:15:17;98001.25;;;16.85;76.09
12215;BME280;6170;42.206;24.142;2023-04-25T07:17:44;97999.84;;;16.78;77.05
12215;BME280;6170;42.206;24.142;2023-04-25T07:20:11;97999.22;;;16.66;76.37
12215;BME280;6170;42.206;24.142;2023-04-25T07:22:40;98008.72;;;16.73;78.05
12215;BME280;6170;42.206;24.142;2023-04-25T07:25:07;98008.03;;;16.56;77.80
12215;BME280;6170;42.206;24.142;2023-04-25T07:27:35;98010.28;;;16.59;75.64
12215;BME280;6170;42.206;24.142;2023-04-25T07:30:03;98013.69;;;16.81;76.12
12215;BME280;6170;42.206;24.142;2023-04-25T07:32:30;98014.28;;;16.93;77.05
12215;BME280;6170;42.206;24.142;2023-04-25T07:34:57;97994.00;;;16.22;79.23
12215;BME280;6170;42.206;24.142;2023-04-25T07:37:24;98005.69;;;16.01;80.15
12215;BME280;6170;42.206;24.142;2023-04-25T07:39:52;97997.75;;;16.21;78.82
12215;BME280;6170;42.206;24.142;2023-04-25T07:42:19;98007.16;;;16.13;79.06
12215;BME280;6170;42.206;24.142;2023-04-25T07:44:46;98010.31;;;16.32;78.22
12215;BME280;6170;42.206;24.142;2023-04-25T07:47:13;98013.72;;;16.23;77.65
12215;BME280;6170;42.206;24.142;2023-04-25T07:49:40;98015.44;;;16.34;77.41
12215;BME280;6170;42.206;24.142;2023-04-25T07:52:07;98010.06;;;16.39;76.35
12215;BME280;6170;42.206;24.142;2023-04-25T07:54:34;98002.63;;;16.56;74.94
12215;BME280;6170;42.206;24.142;2023-04-25T07:57:03;98029.91;;;16.81;76.96
12215;BME280;6170;42.206;24.142;2023-04-25T07:59:31;98002.53;;;16.73;76.44
12215;BME280;6170;42.206;24.142;2023-04-25T08:02:00;97992.50;;;16.73;75.77
12215;BME280;6170;42.206;24.142;2023-04-25T08:04:27;97986.91;;;16.85;77.45
12215;BME280;6170;42.206;24.142;2023-04-25T08:06:54;97985.13;;;16.58;79.04
12215;BME280;6170;42.206;24.142;2023-04-25T08:09:21;97982.28;;;16.80;77.18
12215;BME280;6170;42.206;24.142;2023-04-25T08:11:48;97974.59;;;17.14;77.54
12215;BME280;6170;42.206;24.142;2023-04-25T08:14:17;97975.41;;;17.15;75.52
12215;BME280;6170;42.206;24.142;2023-04-25T08:16:44;97985.56;;;17.49;73.24
12215;BME280;6170;42.206;24.142;2023-04-25T08:19:11;97990.06;;;17.24;72.78
12215;BME280;6170;42.206;24.142;2023-04-25T08:21:38;97991.63;;;17.10;72.89
12215;BME280;6170;42.206;24.142;2023-04-25T08:24:05;97986.19;;;17.72;73.41
12215;BME280;6170;42.206;24.142;2023-04-25T08:26:32;97993.31;;;17.98;71.74
12215;BME280;6170;42.206;24.142;2023-04-25T08:28:59;97990.88;;;18.52;74.65
12215;BME280;6170;42.206;24.142;2023-04-25T08:31:28;97993.75;;;19.16;71.57
12215;BME280;6170;42.206;24.142;2023-04-25T08:33:55;97983.47;;;19.13;70.89
12215;BME280;6170;42.206;24.142;2023-04-25T08:36:22;97987.78;;;20.23;70.30
12215;BME280;6170;42.206;24.142;2023-04-25T08:38:49;97991.47;;;20.03;67.90
12215;BME280;6170;42.206;24.142;2023-04-25T08:41:16;97999.66;;;20.37;66.59
12215;BME280;6170;42.206;24.142;2023-04-25T08:43:44;97991.66;;;20.50;65.00
12215;BME280;6170;42.206;24.142;2023-04-25T08:46:12;97990.81;;;20.21;65.26
12215;BME280;6170;42.206;24.142;2023-04-25T08:48:44;97982.56;;;20.65;64.24
12215;BME280;6170;42.206;24.142;2023-04-25T08:51:16;97988.25;;;20.97;63.18
12215;BME280;6170;42.206;24.142;2023-04-25T08:53:49;97981.28;;;21.58;65.44
12215;BME280;6170;42.206;24.142;2023-04-25T08:56:17;97980.94;;;22.02;65.55
12215;BME280;6170;42.206;24.142;2023-04-25T08:58:48;97993.59;;;20.79;61.30
12215;BME280;6170;42.206;24.142;2023-04-25T09:01:15;97989.88;;;20.36;65.38
12215;BME280;6170;42.206;24.142;2023-04-25T09:03:43;97987.66;;;21.48;66.75
12215;BME280;6170;42.206;24.142;2023-04-25T09:06:12;97982.47;;;21.89;66.32
12215;BME280;6170;42.206;24.142;2023-04-25T09:08:41;97976.56;;;22.70;59.80
12215;BME280;6170;42.206;24.142;2023-04-25T09:11:08;97970.44;;;23.19;61.32
12215;BME280;6170;42.206;24.142;2023-04-25T09:13:35;97967.03;;;23.55;56.69
12215;BME280;6170;42.206;24.142;2023-04-25T09:16:02;97963.88;;;23.07;59.34
12215;BME280;6170;42.206;24.142;2023-04-25T09:18:29;97971.03;;;22.43;61.60
12215;BME280;6170;42.206;24.142;2023-04-25T09:21:06;97966.34;;;21.92;61.47
12215;BME280;6170;42.206;24.142;2023-04-25T09:23:39;97968.47;;;21.77;61.18
12215;BME280;6170;42.206;24.142;2023-04-25T09:26:07;97979.13;;;20.54;59.41
12215;BME280;6170;42.206;24.142;2023-04-25T09:28:34;97950.44;;;20.91;60.61
12215;BME280;6170;42.206;24.142;2023-04-25T09:31:03;97962.44;;;20.27;60.87
12215;BME280;6170;42.206;24.142;2023-04-25T09:33:32;97948.31;;;19.91;63.46
12215;BME280;6170;42.206;24.142;2023-04-25T09:36:06;97938.31;;;19.87;67.34
12215;BME280;6170;42.206;24.142;2023-04-25T09:38:40;97936.91;;;20.23;65.35
12215;BME280;6170;42.206;24.142;2023-04-25T09:41:08;97940.50;;;20.76;66.83
12215;BME280;6170;42.206;24.142;2023-04-25T09:43:35;97931.47;;;20.81;64.48
12215;BME280;6170;42.206;24.142;2023-04-25T09:46:02;97920.47;;;21.57;62.52
12215;BME280;6170;42.206;24.142;2023-04-25T09:48:29;97927.94;;;21.89;60.11
12215;BME280;6170;42.206;24.142;2023-04-25T09:51:08;97909.78;;;21.61;61.38
12215;BME280;6170;42.206;24.142;2023-04-25T09:53:36;97910.56;;;22.82;61.14
12215;BME280;6170;42.206;24.142;2023-04-25T09:56:05;97907.06;;;22.17;61.35
12215;BME280;6170;42.206;24.142;2023-04-25T09:58:34;97909.31;;;22.28;60.21
12215;BME280;6170;42.206;24.142;2023-04-25T10:01:02;97893.25;;;22.87;63.20
12215;BME280;6170;42.206;24.142;2023-04-25T10:03:30;97896.69;;;21.81;61.09
12215;BME280;6170;42.206;24.142;2023-04-25T10:05:59;97862.63;;;21.79;61.37
12215;BME280;6170;42.206;24.142;2023-04-25T10:08:31;97880.22;;;22.37;65.10
12215;BME280;6170;42.206;24.142;2023-04-25T10:11:00;97871.06;;;22.61;59.48
12215;BME280;6170;42.206;24.142;2023-04-25T10:13:29;97861.88;;;22.11;61.34
12215;BME280;6170;42.206;24.142;2023-04-25T10:15:57;97860.94;;;22.02;60.64
12215;BME280;6170;42.206;24.142;2023-04-25T10:18:25;97858.97;;;22.21;62.43
12215;BME280;6170;42.206;24.142;2023-04-25T10:20:53;97851.69;;;21.28;59.28
12215;BME280;6170;42.206;24.142;2023-04-25T10:23:20;97867.19;;;22.02;59.64
12215;BME280;6170;42.206;24.142;2023-04-25T10:25:49;97840.13;;;21.87;57.10
12215;BME280;6170;42.206;24.142;2023-04-25T10:28:16;97830.81;;;21.93;60.95
12215;BME280;6170;42.206;24.142;2023-04-25T10:30:57;97826.88;;;20.63;61.54
12215;BME280;6170;42.206;24.142;2023-04-25T10:33:30;97826.13;;;21.24;61.07
12215;BME280;6170;42.206;24.142;2023-04-25T10:35:59;97834.06;;;21.76;60.99
12215;BME280;6170;42.206;24.142;2023-04-25T10:38:36;97822.16;;;21.35;59.57
12215;BME280;6170;42.206;24.142;2023-04-25T10:41:05;97816.94;;;21.20;58.68
12215;BME280;6170;42.206;24.142;2023-04-25T10:43:35;97825.25;;;21.28;58.16
12215;BME280;6170;42.206;24.142;2023-04-25T10:46:02;97817.56;;;20.45;59.41
12215;BME280;6170;42.206;24.142;2023-04-25T10:48:45;97813.22;;;19.53;60.57
12215;BME280;6170;42.206;24.142;2023-04-25T10:51:16;97810.03;;;20.37;60.99
12215;BME280;6170;42.206;24.142;2023-04-25T10:53:44;97800.53;;;21.01;58.82
12215;BME280;6170;42.206;24.142;2023-04-25T10:56:17;97799.25;;;21.17;55.46
12215;BME280;6170;42.206;24.142;2023-04-25T10:58:44;97796.03;;;21.15;56.16
12215;BME280;6170;42.206;24.142;2023-04-25T11:01:12;97790.59;;;21.66;54.53
12215;BME280;6170;42.206;24.142;2023-04-25T11:03:43;97783.06;;;21.77;52.22
12215;BME280;6170;42.206;24.142;2023-04-25T11:06:20;97790.06;;;21.64;58.73
12215;BME280;6170;42.206;24.142;2023-04-25T11:08:49;97783.81;;;21.07;55.51
12215;BME280;6170;42.206;24.142;2023-04-25T11:11:18;97789.47;;;21.11;55.58
12215;BME280;6170;42.206;24.142;2023-04-25T11:13:48;97777.47;;;21.17;54.69
12215;BME280;6170;42.206;24.142;2023-04-25T11:16:15;97782.38;;;20.30;60.57
12215;BME280;6170;42.206;24.142;2023-04-25T11:18:43;97761.94;;;20.28;57.79
12215;BME280;6170;42.206;24.142;2023-04-25T11:21:10;97771.34;;;21.06;57.11
12215;BME280;6170;42.206;24.142;2023-04-25T11:23:37;97753.38;;;21.05;60.34
12215;BME280;6170;42.206;24.142;2023-04-25T11:26:04;97752.94;;;21.17;58.54
12215;BME280;6170;42.206;24.142;2023-04-25T11:28:32;97750.22;;;21.82;56.62
12215;BME280;6170;42.206;24.142;2023-04-25T11:30:59;97753.53;;;21.98;55.93
12215;BME280;6170;42.206;24.142;2023-04-25T11:33:26;97760.53;;;21.71;57.80
12215;BME280;6170;42.206;24.142;2023-04-25T11:35:54;97756.34;;;21.60;56.72
12215;BME280;6170;42.206;24.142;2023-04-25T11:38:22;97746.41;;;21.83;56.15
12215;BME280;6170;42.206;24.142;2023-04-25T11:40:51;97740.28;;;22.05;55.76
12215;BME280;6170;42.206;24.142;2023-04-25T11:43:20;97743.41;;;21.33;56.21
12215;BME280;6170;42.206;24.142;2023-04-25T11:45:50;97736.78;;;21.72;54.92
12215;BME280;6170;42.206;24.142;2023-04-25T11:48:17;97734.44;;;21.98;54.25
12215;BME280;6170;42.206;24.142;2023-04-25T11:50:44;97727.69;;;22.22;53.44
12215;BME280;6170;42.206;24.142;2023-04-25T11:53:11;97731.13;;;21.68;52.26
12215;BME280;6170;42.206;24.142;2023-04-25T11:55:38;97737.69;;;22.27;53.59
12215;BME280;6170;42.206;24.142;2023-04-25T11:58:05;97753.03;;;22.64;54.32
12215;BME280;6170;42.206;24.142;2023-04-25T12:00:35;97752.88;;;22.74;53.26
12215;BME280;6170;42.206;24.142;2023-04-25T12:03:03;97736.66;;;22.23;53.53
12215;BME280;6170;42.206;24.142;2023-04-25T12:05:31;97752.03;;;22.05;52.17
12215;BME280;6170;42.206;24.142;2023-04-25T12:08:09;97751.59;;;21.66;55.97
12215;BME280;6170;42.206;24.142;2023-04-25T12:10:37;97759.00;;;20.90;55.97
12215;BME280;6170;42.206;24.142;2023-04-25T12:13:18;97750.25;;;20.75;57.01
12215;BME280;6170;42.206;24.142;2023-04-25T12:15:45;97759.03;;;21.09;55.91
12215;BME280;6170;42.206;24.142;2023-04-25T12:18:14;97762.19;;;20.79;55.93
12215;BME280;6170;42.206;24.142;2023-04-25T12:20:41;97755.78;;;20.70;57.47
12215;BME280;6170;42.206;24.142;2023-04-25T12:23:09;97752.38;;;20.78;56.42
12215;BME280;6170;42.206;24.142;2023-04-25T12:25:37;97759.69;;;20.40;56.41
12215;BME280;6170;42.206;24.142;2023-04-25T12:28:15;97752.56;;;20.62;57.45
12215;BME280;6170;42.206;24.142;2023-04-25T12:30:55;97759.44;;;20.36;55.02
12215;BME280;6170;42.206;24.142;2023-04-25T12:33:25;97755.69;;;20.32;56.14
12215;BME280;6170;42.206;24.142;2023-04-25T12:35:52;97762.69;;;20.81;53.90
12215;BME280;6170;42.206;24.142;2023-04-25T12:38:23;97755.56;;;20.42;53.08
12215;BME280;6170;42.206;24.142;2023-04-25T12:40:50;97759.28;;;20.23;52.33
12215;BME280;6170;42.206;24.142;2023-04-25T12:43:17;97759.38;;;20.17;52.25
12215;BME280;6170;42.206;24.142;2023-04-25T12:45:44;97760.50;;;20.83;51.56
12215;BME280;6170;42.206;24.142;2023-04-25T12:48:11;97765.19;;;21.20;54.25
12215;BME280;6170;42.206;24.142;2023-04-25T12:50:39;97764.19;;;20.49;52.96
12215;BME280;6170;42.206;24.142;2023-04-25T12:53:06;97774.44;;;20.76;54.76
12215;BME280;6170;42.206;24.142;2023-04-25T12:55:33;97760.66;;;20.49;56.57
12215;BME280;6170;42.206;24.142;2023-04-25T12:58:00;97750.19;;;20.80;55.74
12215;BME280;6170;42.206;24.142;2023-04-25T13:00:28;97766.00;;;20.78;54.43
12215;BME280;6170;42.206;24.142;2023-04-25T13:02:55;97747.38;;;20.18;55.06